sensor_id;sensor_type;location;lat;lon;timestamp;pressure;altitude;pressure_sealevel;temperature;humidity
59154;BME280;44935;48.944;9.418;2023-01-26T16:20:05;99004.28;;;3.39;42.72
59154;BME280;44935;48.944;9.418;2023-01-26T16:22:33;99004.60;;;3.61;42.09
59154;BME280;44935;48.944;9.418;2023-01-26T16:25:00;99006.03;;;3.97;41.38
59154;BME280;44935;48.944;9.418;2023-01-26T16:27:27;99003.91;;;4.10;40.89
59154;BME280;44935;48.944;9.418;2023-01-26T16:29:53;99005.82;;;4.22;41.45
59154;BME280;44935;48.944;9.418;2023-01-26T16:32:26;99002.58;;;3.64;42.27
59154;BME280;44935;48.944;9.418;2023-01-26T16:34:54;98999.09;;;3.34;42.23
59154;BME280;44935;48.944;9.418;2023-01-26T16:37:21;99002.03;;;3.23;43.25
59154;BME280;44935;48.944;9.418;2023-01-26T16:39:48;99003.84;;;3.10;43.84
59154;BME280;44935;48.944;9.418;2023-01-26T16:42:17;99007.04;;;2.72;44.72
59154;BME280;44935;48.944;9.418;2023-01-26T16:44:46;99005.57;;;1.45;48.24
59154;BME280;44935;48.944;9.418;2023-01-26T16:47:13;99003.86;;;3.26;44.47
59154;BME280;44935;48.944;9.418;2023-01-26T16:49:39;99004.66;;;3.22;43.97
59154;BME280;44935;48.944;9.418;2023-01-26T16:52:07;99005.70;;;3.58;43.78
59154;BME280;44935;48.944;9.418;2023-01-26T16:54:36;99005.45;;;4.14;43.47
59154;BME280;44935;48.944;9.418;2023-01-26T16:57:03;99007.12;;;3.25;44.75
59154;BME280;44935;48.944;9.418;2023-01-26T16:59:31;99007.20;;;2.97;45.90
59154;BME280;44935;48.944;9.418;2023-01-26T17:01:58;99005.36;;;2.79;46.94
59154;BME280;44935;48.944;9.418;2023-01-26T17:04:25;99002.38;;;2.67;46.72
59154;BME280;44935;48.944;9.418;2023-01-26T17:06:52;99005.49;;;3.20;45.86
59154;BME280;44935;48.944;9.418;2023-01-26T17:09:19;98999.61;;;3.67;45.03
59154;BME280;44935;48.944;9.418;2023-01-26T17:11:45;98997.96;;;3.09;46.06
59154;BME280;44935;48.944;9.418;2023-01-26T17:14:13;99002.66;;;3.31;45.92
59154;BME280;44935;48.944;9.418;2023-01-26T17:16:40;99002.72;;;3.24;45.39
59154;BME280;44935;48.944;9.418;2023-01-26T17:19:06;99002.53;;;3.36;45.42
59154;BME280;44935;48.944;9.418;2023-01-26T17:21:33;99007.92;;;2.87;45.65
59154;BME280;44935;48.944;9.418;2023-01-26T17:24:00;99005.96;;;2.43;45.83
59154;BME280;44935;48.944;9.418;2023-01-26T17:26:27;99007.78;;;2.44;47.31
59154;BME280;44935;48.944;9.418;2023-01-26T17:28:54;99005.82;;;2.16;47.39
59154;BME280;44935;48.944;9.418;2023-01-26T17:31:23;99001.58;;;2.71;47.50
59154;BME280;44935;48.944;9.418;2023-01-26T17:33:50;98999.19;;;2.47;47.83
59154;BME280;44935;48.944;9.418;2023-01-26T17:36:18;99001.50;;;2.29;47.56
59154;BME280;44935;48.944;9.418;2023-01-26T17:38:46;99003.79;;;2.54;47.69
59154;BME280;44935;48.944;9.418;2023-01-26T17:41:13;99003.81;;;2.20;48.47
59154;BME280;44935;48.944;9.418;2023-01-26T17:43:40;99005.41;;;2.45;47.89
59154;BME280;44935;48.944;9.418;2023-01-26T17:46:10;99003.09;;;1.92;48.34
59154;BME280;44935;48.944;9.418;2023-01-26T17:48:38;99003.28;;;2.00;48.75
59154;BME280;44935;48.944;9.418;2023-01-26T17:51:07;99004.79;;;2.05;49.00
59154;BME280;44935;48.944;9.418;2023-01-26T17:53:36;99007.82;;;2.13;48.85
59154;BME280;44935;48.944;9.418;2023-01-26T17:56:04;99010.68;;;2.05;49.03
59154;BME280;44935;48.944;9.418;2023-01-26T17:58:31;99013.76;;;1.57;50.21
59154;BME280;44935;48.944;9.418;2023-01-26T18:00:58;99010.02;;;1.60;50.64
59154;BME280;44935;48.944;9.418;2023-01-26T18:03:25;99012.13;;;2.08;49.90
59154;BME280;44935;48.944;9.418;2023-01-26T18:05:53;99012.71;;;2.17;49.54
59154;BME280;44935;48.944;9.418;2023-01-26T18:08:20;99012.59;;;2.55;49.12
59154;BME280;44935;48.944;9.418;2023-01-26T18:10:48;99015.32;;;2.83;48.53
59154;BME280;44935;48.944;9.418;2023-01-26T18:13:15;99010.10;;;2.62;48.89
59154;BME280;44935;48.944;9.418;2023-01-26T18:15:43;99012.51;;;2.71;48.48
59154;BME280;44935;48.944;9.418;2023-01-26T18:18:10;99016.68;;;2.83;49.00
59154;BME280;44935;48.944;9.418;2023-01-26T18:20:37;99011.57;;;2.46;48.61
59154;BME280;44935;48.944;9.418;2023-01-26T18:23:04;99009.94;;;2.60;48.60
59154;BME280;44935;48.944;9.418;2023-01-26T18:25:32;99014.14;;;2.05;49.59
59154;BME280;44935;48.944;9.418;2023-01-26T18:27:59;99009.68;;;2.51;47.75
59154;BME280;44935;48.944;9.418;2023-01-26T18:30:26;99010.63;;;2.80;47.67
59154;BME280;44935;48.944;9.418;2023-01-26T18:32:52;99011.74;;;2.86;47.74
59154;BME280;44935;48.944;9.418;2023-01-26T18:35:19;99009.69;;;2.68;48.06
59154;BME280;44935;48.944;9.418;2023-01-26T18:37:46;99007.41;;;2.37;47.96
59154;BME280;44935;48.944;9.418;2023-01-26T18:40:13;99006.32;;;2.12;49.37
59154;BME280;44935;48.944;9.418;2023-01-26T18:42:40;99006.70;;;1.74;49.40
59154;BME280;44935;48.944;9.418;2023-01-26T18:45:08;99009.30;;;1.79;49.28
59154;BME280;44935;48.944;9.418;2023-01-26T18:47:35;99011.99;;;1.67;49.24
59154;BME280;44935;48.944;9.418;2023-01-26T18:50:03;99009.56;;;1.59;49.63
59154;BME280;44935;48.944;9.418;2023-01-26T18:52:30;99012.72;;;1.81;49.10
59154;BME280;44935;48.944;9.418;2023-01-26T18:54:57;99012.31;;;1.80;49.04
59154;BME280;44935;48.944;9.418;2023-01-26T18:57:24;99016.28;;;1.48;49.38
59154;BME280;44935;48.944;9.418;2023-01-26T18:59:51;99012.98;;;2.01;49.23
59154;BME280;44935;48.944;9.418;2023-01-26T19:02:18;99012.63;;;2.01;48.67
59154;BME280;44935;48.944;9.418;2023-01-26T19:04:45;99010.10;;;2.03;49.02
59154;BME280;44935;48.944;9.418;2023-01-26T19:07:12;99010.35;;;2.24;48.43
59154;BME280;44935;48.944;9.418;2023-01-26T19:09:39;99014.57;;;2.32;48.34
59154;BME280;44935;48.944;9.418;2023-01-26T19:12:06;99012.48;;;2.22;48.18
59154;BME280;44935;48.944;9.418;2023-01-26T19:14:33;99013.07;;;0.84;49.06
59154;BME280;44935;48.944;9.418;2023-01-26T19:17:00;99010.93;;;1.51;48.73
59154;BME280;44935;48.944;9.418;2023-01-26T19:19:27;99012.65;;;2.51;46.73
59154;BME280;44935;48.944;9.418;2023-01-26T19:21:54;99012.55;;;2.78;45.66
59154;BME280;44935;48.944;9.418;2023-01-26T19:24:22;99009.27;;;2.90;46.18
59154;BME280;44935;48.944;9.418;2023-01-26T19:26:48;99006.81;;;2.93;46.31
59154;BME280;44935;48.944;9.418;2023-01-26T19:29:15;99004.18;;;2.65;45.66
59154;BME280;44935;48.944;9.418;2023-01-26T19:31:42;99008.70;;;2.03;46.94
59154;BME280;44935;48.944;9.418;2023-01-26T19:34:12;99008.43;;;2.95;45.57
59154;BME280;44935;48.944;9.418;2023-01-26T19:36:39;99013.22;;;2.80;45.77
59154;BME280;44935;48.944;9.418;2023-01-26T19:39:07;99010.96;;;2.56;46.46
59154;BME280;44935;48.944;9.418;2023-01-26T19:41:34;99012.16;;;3.03;46.04
59154;BME280;44935;48.944;9.418;2023-01-26T19:44:01;99012.76;;;0.87;48.99
59154;BME280;44935;48.944;9.418;2023-01-26T19:46:28;99011.17;;;3.14;45.55
59154;BME280;44935;48.944;9.418;2023-01-26T19:48:55;99007.87;;;2.53;46.95
59154;BME280;44935;48.944;9.418;2023-01-26T19:51:23;99004.96;;;3.17;45.09
59154;BME280;44935;48.944;9.418;2023-01-26T19:53:53;99007.54;;;2.95;45.26
59154;BME280;44935;48.944;9.418;2023-01-26T19:56:22;99011.13;;;3.45;46.01
59154;BME280;44935;48.944;9.418;2023-01-26T19:58:51;99005.38;;;3.33;45.09
59154;BME280;44935;48.944;9.418;2023-01-26T20:01:19;99002.96;;;3.58;44.60
59154;BME280;44935;48.944;9.418;2023-01-26T20:03:48;99004.53;;;3.51;45.49
59154;BME280;44935;48.944;9.418;2023-01-26T20:06:17;99008.81;;;3.19;45.33
59154;BME280;44935;48.944;9.418;2023-01-26T20:08:46;99011.73;;;2.63;45.46
59154;BME280;44935;48.944;9.418;2023-01-26T20:11:13;99007.67;;;3.63;44.12
59154;BME280;44935;48.944;9.418;2023-01-26T20:13:41;99009.74;;;3.39;44.92
59154;BME280;44935;48.944;9.418;2023-01-26T20:16:08;99011.94;;;2.66;46.45
59154;BME280;44935;48.944;9.418;2023-01-26T20:18:36;99011.05;;;3.53;44.78
59154;BME280;44935;48.944;9.418;2023-01-26T20:21:03;99011.91;;;3.83;43.97
59154;BME280;44935;48.944;9.418;2023-01-26T20:23:30;99011.58;;;2.66;46.20
59154;BME280;44935;48.944;9.418;2023-01-26T20:26:01;99017.15;;;2.75;46.31
59154;BME280;44935;48.944;9.418;2023-01-26T20:28:28;99018.80;;;3.35;44.28
59154;BME280;44935;48.944;9.418;2023-01-26T20:31:03;99019.91;;;3.11;44.92
59154;BME280;44935;48.944;9.418;2023-01-26T20:33:30;99017.34;;;3.22;45.44
59154;BME280;44935;48.944;9.418;2023-01-26T20:35:57;99018.34;;;2.38;47.04
59154;BME280;44935;48.944;9.418;2023-01-26T20:38:23;99016.52;;;3.03;45.79
59154;BME280;44935;48.944;9.418;2023-01-26T20:40:50;99017.40;;;3.07;44.60
59154;BME280;44935;48.944;9.418;2023-01-26T20:43:17;99020.11;;;3.08;45.84
59154;BME280;44935;48.944;9.418;2023-01-26T20:45:44;99015.31;;;3.26;45.26
59154;BME280;44935;48.944;9.418;2023-01-26T20:48:11;99016.41;;;3.20;45.68
59154;BME280;44935;48.944;9.418;2023-01-26T20:50:38;99015.52;;;2.93;46.02
59154;BME280;44935;48.944;9.418;2023-01-26T20:53:05;99017.22;;;2.60;46.42
59154;BME280;44935;48.944;9.418;2023-01-26T20:55:33;99019.04;;;2.69;47.07
59154;BME280;44935;48.944;9.418;2023-01-26T20:58:00;99020.50;;;3.02;46.61
59154;BME280;44935;48.944;9.418;2023-01-26T21:00:27;99020.80;;;2.85;46.48
59154;BME280;44935;48.944;9.418;2023-01-26T21:02:54;99018.93;;;2.62;47.36
59154;BME280;44935;48.944;9.418;2023-01-26T21:05:21;99018.95;;;2.40;47.53
59154;BME280;44935;48.944;9.418;2023-01-26T21:07:48;99017.36;;;2.56;47.26
59154;BME280;44935;48.944;9.418;2023-01-26T21:10:15;99014.39;;;1.55;48.89
59154;BME280;44935;48.944;9.418;2023-01-26T21:12:42;99014.83;;;2.31;47.78
59154;BME280;44935;48.944;9.418;2023-01-26T21:15:10;99013.45;;;2.21;47.57
59154;BME280;44935;48.944;9.418;2023-01-26T21:17:37;99011.22;;;2.61;46.34
59154;BME280;44935;48.944;9.418;2023-01-26T21:20:04;99009.82;;;2.54;46.77
59154;BME280;44935;48.944;9.418;2023-01-26T21:22:31;99008.71;;;2.90;46.09
59154;BME280;44935;48.944;9.418;2023-01-26T21:24:58;99005.49;;;2.85;45.86
59154;BME280;44935;48.944;9.418;2023-01-26T21:27:25;99001.93;;;3.20;45.09
59154;BME280;44935;48.944;9.418;2023-01-26T21:29:52;99003.69;;;2.46;46.53
59154;BME280;44935;48.944;9.418;2023-01-26T21:32:19;99003.98;;;2.03;46.87
59154;BME280;44935;48.944;9.418;2023-01-26T21:34:46;98999.70;;;2.67;45.91
59154;BME280;44935;48.944;9.418;2023-01-26T21:37:13;98998.92;;;2.52;46.70
59154;BME280;44935;48.944;9.418;2023-01-26T21:39:40;98996.69;;;2.13;46.82
59154;BME280;44935;48.944;9.418;2023-01-26T21:42:07;98995.18;;;2.10;47.83
59154;BME280;44935;48.944;9.418;2023-01-26T21:44:34;98995.87;;;2.08;47.76
59154;BME280;44935;48.944;9.418;2023-01-26T21:47:02;98991.76;;;2.06;47.17
59154;BME280;44935;48.944;9.418;2023-01-26T21:49:29;98989.79;;;2.35;47.43
59154;BME280;44935;48.944;9.418;2023-01-26T21:51:57;98990.51;;;2.41;47.24
59154;BME280;44935;48.944;9.418;2023-01-26T21:54:24;98989.55;;;2.48;46.99
59154;BME280;44935;48.944;9.418;2023-01-26T21:56:51;98987.62;;;2.51;46.71
59154;BME280;44935;48.944;9.418;2023-01-26T21:59:18;98989.04;;;2.65;46.91
59154;BME280;44935;48.944;9.418;2023-01-26T22:01:46;98988.15;;;2.23;46.95
59154;BME280;44935;48.944;9.418;2023-01-26T22:04:15;98985.41;;;2.32;46.92
59154;BME280;44935;48.944;9.418;2023-01-26T22:06:43;98988.40;;;2.50;46.95
59154;BME280;44935;48.944;9.418;2023-01-26T22:09:12;98989.74;;;2.32;46.68
59154;BME280;44935;48.944;9.418;2023-01-26T22:11:40;98991.56;;;2.24;47.11
59154;BME280;44935;48.944;9.418;2023-01-26T22:14:08;98992.34;;;2.36;46.50
59154;BME280;44935;48.944;9.418;2023-01-26T22:16:38;98993.73;;;2.30;47.46
59154;BME280;44935;48.944;9.418;2023-01-26T22:19:05;98991.79;;;2.23;47.07
59154;BME280;44935;48.944;9.418;2023-01-26T22:21:34;98993.47;;;2.14;47.50
59154;BME280;44935;48.944;9.418;2023-01-26T22:24:01;98991.75;;;2.22;47.36
59154;BME280;44935;48.944;9.418;2023-01-26T22:26:28;98992.91;;;2.41;47.07
59154;BME280;44935;48.944;9.418;2023-01-26T22:28:57;98990.29;;;2.17;46.83
59154;BME280;44935;48.944;9.418;2023-01-26T22:31:26;98993.18;;;2.11;47.57
59154;BME280;44935;48.944;9.418;2023-01-26T22:33:55;98995.18;;;2.23;47.35
59154;BME280;44935;48.944;9.418;2023-01-26T22:36:23;98992.94;;;2.34;47.38
59154;BME280;44935;48.944;9.418;2023-01-26T22:38:57;98989.29;;;2.09;47.43
59154;BME280;44935;48.944;9.418;2023-01-26T22:41:26;98988.71;;;1.76;47.69
59154;BME280;44935;48.944;9.418;2023-01-26T22:43:55;98981.86;;;2.01;47.48
59154;BME280;44935;48.944;9.418;2023-01-26T22:46:24;98978.32;;;2.09;47.74
59154;BME280;44935;48.944;9.418;2023-01-26T22:48:52;98975.01;;;2.41;46.86
59154;BME280;44935;48.944;9.418;2023-01-26T22:51:20;98974.19;;;2.30;46.80
59154;BME280;44935;48.944;9.418;2023-01-26T22:53:49;98974.24;;;2.52;46.75
59154;BME280;44935;48.944;9.418;2023-01-26T22:56:17;98973.48;;;2.08;46.58
59154;BME280;44935;48.944;9.418;2023-01-26T22:58:48;98970.06;;;2.39;47.19
59154;BME280;44935;48.944;9.418;2023-01-26T23:01:16;98967.72;;;2.53;47.11
59154;BME280;44935;48.944;9.418;2023-01-26T23:03:44;98960.91;;;2.13;47.53
59154;BME280;44935;48.944;9.418;2023-01-26T23:06:13;98956.06;;;1.88;47.28
59154;BME280;44935;48.944;9.418;2023-01-26T23:08:41;98959.48;;;1.99;47.66
59154;BME280;44935;48.944;9.418;2023-01-26T23:11:12;98958.02;;;2.86;46.06
59154;BME280;44935;48.944;9.418;2023-01-26T23:13:40;98953.99;;;3.09;45.64
59154;BME280;44935;48.944;9.418;2023-01-26T23:16:09;98958.46;;;0.68;47.73
59154;BME280;44935;48.944;9.418;2023-01-26T23:18:36;98955.18;;;2.53;46.04
59154;BME280;44935;48.944;9.418;2023-01-26T23:21:04;98952.54;;;3.19;44.90
59154;BME280;44935;48.944;9.418;2023-01-26T23:23:32;98951.24;;;3.47;44.01
59154;BME280;44935;48.944;9.418;2023-01-26T23:25:59;98952.08;;;3.34;44.65
59154;BME280;44935;48.944;9.418;2023-01-26T23:28:28;98953.62;;;2.82;45.34
59154;BME280;44935;48.944;9.418;2023-01-26T23:30:56;98951.83;;;3.09;45.03
59154;BME280;44935;48.944;9.418;2023-01-26T23:33:27;98948.72;;;2.94;44.13
59154;BME280;44935;48.944;9.418;2023-01-26T23:35:54;98944.88;;;2.62;44.98
59154;BME280;44935;48.944;9.418;2023-01-26T23:38:24;98945.19;;;2.65;45.07
59154;BME280;44935;48.944;9.418;2023-01-26T23:40:51;98940.70;;;2.82;45.52
59154;BME280;44935;48.944;9.418;2023-01-26T23:43:19;98943.87;;;2.85;45.19
59154;BME280;44935;48.944;9.418;2023-01-26T23:45:47;98939.97;;;2.88;44.94
59154;BME280;44935;48.944;9.418;2023-01-26T23:48:15;98941.05;;;2.82;45.54
59154;BME280;44935;48.944;9.418;2023-01-26T23:50:43;98938.56;;;2.84;45.06
59154;BME280;44935;48.944;9.418;2023-01-26T23:53:10;98937.45;;;2.67;45.09
59154;BME280;44935;48.944;9.418;2023-01-26T23:55:39;98934.63;;;2.34;46.22
59154;BME280;44935;48.944;9.418;2023-01-26T23:58:06;98938.99;;;2.58;45.38
